sensor_id;sensor_type;location;lat;lon;timestamp;temperature;humidity
40374;DHT22;26079;45.958;12.492;2023-11-19T00:00:45;3.90;99.90
40374;DHT22;26079;45.958;12.492;2023-11-19T00:03:11;3.90;99.90
40374;DHT22;26079;45.958;12.492;2023-11-19T00:05:38;3.90;99.90
40374;DHT22;26079;45.958;12.492;2023-11-19T00:08:04;4.00;99.90
40374;DHT22;26079;45.958;12.492;2023-11-19T00:10:31;4.00;99.90
40374;DHT22;26079;45.958;12.492;2023-11-19T00:12:57;4.00;99.90
40374;DHT22;26079;45.958;12.492;2023-11-19T00:15:23;4.00;99.90
40374;DHT22;26079;45.958;12.492;2023-11-19T00:17:49;4.00;99.90
40374;DHT22;26079;45.958;12.492;2023-11-19T00:20:19;3.90;99.90
40374;DHT22;26079;45.958;12.492;2023-11-19T00:22:47;3.90;99.90
40374;DHT22;26079;45.958;12.492;2023-11-19T00:25:16;3.80;99.90
40374;DHT22;26079;45.958;12.492;2023-11-19T00:27:42;3.80;99.90
40374;DHT22;26079;45.958;12.492;2023-11-19T00:30:14;3.70;99.90
40374;DHT22;26079;45.958;12.492;2023-11-19T00:32:41;3.70;99.90
40374;DHT22;26079;45.958;12.492;2023-11-19T00:35:07;3.70;99.90
40374;DHT22;26079;45.958;12.492;2023-11-19T00:37:33;3.70;99.90
40374;DHT22;26079;45.958;12.492;2023-11-19T00:39:59;3.70;99.90
40374;DHT22;26079;45.958;12.492;2023-11-19T00:42:25;3.60;99.90
40374;DHT22;26079;45.958;12.492;2023-11-19T00:44:51;3.50;99.90
40374;DHT22;26079;45.958;12.492;2023-11-19T00:47:17;3.50;99.90
40374;DHT22;26079;45.958;12.492;2023-11-19T00:49:46;3.50;99.90
40374;DHT22;26079;45.958;12.492;2023-11-19T00:52:14;3.50;99.90
40374;DHT22;26079;45.958;12.492;2023-11-19T00:54:40;3.50;99.90
40374;DHT22;26079;45.958;12.492;2023-11-19T00:57:05;3.40;99.90
40374;DHT22;26079;45.958;12.492;2023-11-19T00:59:31;3.40;99.90
40374;DHT22;26079;45.958;12.492;2023-11-19T01:01:58;3.40;99.90
40374;DHT22;26079;45.958;12.492;2023-11-19T01:04:28;3.30;99.90
40374;DHT22;26079;45.958;12.492;2023-11-19T01:06:54;3.30;99.90
40374;DHT22;26079;45.958;12.492;2023-11-19T01:09:20;3.30;99.90
40374;DHT22;26079;45.958;12.492;2023-11-19T01:11:45;3.30;99.90
40374;DHT22;26079;45.958;12.492;2023-11-19T01:14:11;3.30;99.90
40374;DHT22;26079;45.958;12.492;2023-11-19T01:16:37;3.20;99.90
40374;DHT22;26079;45.958;12.492;2023-11-19T01:19:02;3.20;99.90
40374;DHT22;26079;45.958;12.492;2023-11-19T01:21:30;3.30;99.90
40374;DHT22;26079;45.958;12.492;2023-11-19T01:23:57;3.30;99.90
40374;DHT22;26079;45.958;12.492;2023-11-19T01:26:24;3.20;99.90
40374;DHT22;26079;45.958;12.492;2023-11-19T01:28:49;3.20;99.90
40374;DHT22;26079;45.958;12.492;2023-11-19T01:31:18;3.20;99.90
40374;DHT22;26079;45.958;12.492;2023-11-19T01:33:43;3.20;99.90
40374;DHT22;26079;45.958;12.492;2023-11-19T01:36:13;3.20;99.90
40374;DHT22;26079;45.958;12.492;2023-11-19T01:38:38;3.20;99.90
40374;DHT22;26079;45.958;12.492;2023-11-19T01:41:04;3.20;99.90
40374;DHT22;26079;45.958;12.492;2023-11-19T01:43:37;3.10;99.90
40374;DHT22;26079;45.958;12.492;2023-11-19T01:46:05;3.10;99.90
40374;DHT22;26079;45.958;12.492;2023-11-19T01:48:34;3.20;99.90
40374;DHT22;26079;45.958;12.492;2023-11-19T01:51:04;3.10;99.90
40374;DHT22;26079;45.958;12.492;2023-11-19T01:53:31;3.10;99.90
40374;DHT22;26079;45.958;12.492;2023-11-19T01:55:57;3.10;99.90
40374;DHT22;26079;45.958;12.492;2023-11-19T01:58:24;3.10;99.90
40374;DHT22;26079;45.958;12.492;2023-11-19T02:00:50;3.10;99.90
40374;DHT22;26079;45.958;12.492;2023-11-19T02:03:16;3.10;99.90
40374;DHT22;26079;45.958;12.492;2023-11-19T02:05:42;3.20;99.90
40374;DHT22;26079;45.958;12.492;2023-11-19T02:08:08;3.20;99.90
40374;DHT22;26079;45.958;12.492;2023-11-19T02:10:34;3.20;99.90
40374;DHT22;26079;45.958;12.492;2023-11-19T02:13:01;3.20;99.90
40374;DHT22;26079;45.958;12.492;2023-11-19T02:15:28;3.20;99.90
40374;DHT22;26079;45.958;12.492;2023-11-19T02:17:53;3.30;99.90
40374;DHT22;26079;45.958;12.492;2023-11-19T02:20:19;3.30;99.90
40374;DHT22;26079;45.958;12.492;2023-11-19T02:22:49;3.40;99.90
40374;DHT22;26079;45.958;12.492;2023-11-19T02:25:29;3.40;99.90
40374;DHT22;26079;45.958;12.492;2023-11-19T02:27:59;3.40;99.90
40374;DHT22;26079;45.958;12.492;2023-11-19T02:30:26;3.40;99.90
40374;DHT22;26079;45.958;12.492;2023-11-19T02:32:55;3.40;99.90
40374;DHT22;26079;45.958;12.492;2023-11-19T02:35:23;3.40;99.90
40374;DHT22;26079;45.958;12.492;2023-11-19T02:37:49;3.40;99.90
40374;DHT22;26079;45.958;12.492;2023-11-19T02:40:15;3.50;99.90
40374;DHT22;26079;45.958;12.492;2023-11-19T02:42:41;3.50;99.90
40374;DHT22;26079;45.958;12.492;2023-11-19T02:45:07;3.50;99.90
40374;DHT22;26079;45.958;12.492;2023-11-19T02:47:36;3.40;99.90
40374;DHT22;26079;45.958;12.492;2023-11-19T02:50:01;3.40;99.90
40374;DHT22;26079;45.958;12.492;2023-11-19T02:52:28;3.30;99.90
40374;DHT22;26079;45.958;12.492;2023-11-19T02:54:53;3.30;99.90
40374;DHT22;26079;45.958;12.492;2023-11-19T02:57:19;3.30;99.90
40374;DHT22;26079;45.958;12.492;2023-11-19T02:59:46;3.30;99.90
40374;DHT22;26079;45.958;12.492;2023-11-19T03:02:12;3.30;99.90
40374;DHT22;26079;45.958;12.492;2023-11-19T03:04:38;3.40;99.90
40374;DHT22;26079;45.958;12.492;2023-11-19T03:07:09;3.40;99.90
40374;DHT22;26079;45.958;12.492;2023-11-19T03:09:35;3.40;99.90
40374;DHT22;26079;45.958;12.492;2023-11-19T03:12:01;3.40;99.90
40374;DHT22;26079;45.958;12.492;2023-11-19T03:14:27;3.40;99.90
40374;DHT22;26079;45.958;12.492;2023-11-19T03:16:53;3.50;99.90
40374;DHT22;26079;45.958;12.492;2023-11-19T03:19:19;3.50;99.90
40374;DHT22;26079;45.958;12.492;2023-11-19T03:21:45;3.50;99.90
40374;DHT22;26079;45.958;12.492;2023-11-19T03:24:13;3.60;99.90
40374;DHT22;26079;45.958;12.492;2023-11-19T03:26:39;3.60;99.90
40374;DHT22;26079;45.958;12.492;2023-11-19T03:29:05;3.70;99.90
40374;DHT22;26079;45.958;12.492;2023-11-19T03:31:31;3.80;99.90
40374;DHT22;26079;45.958;12.492;2023-11-19T03:33:56;3.80;99.90
40374;DHT22;26079;45.958;12.492;2023-11-19T03:36:22;3.80;99.90
40374;DHT22;26079;45.958;12.492;2023-11-19T03:38:48;3.70;99.90
40374;DHT22;26079;45.958;12.492;2023-11-19T03:41:14;3.60;99.90
40374;DHT22;26079;45.958;12.492;2023-11-19T03:43:40;3.60;99.90
40374;DHT22;26079;45.958;12.492;2023-11-19T03:46:20;3.60;99.90
40374;DHT22;26079;45.958;12.492;2023-11-19T03:48:49;3.60;99.90
40374;DHT22;26079;45.958;12.492;2023-11-19T03:51:16;3.60;99.90
40374;DHT22;26079;45.958;12.492;2023-11-19T03:53:45;3.60;99.90
40374;DHT22;26079;45.958;12.492;2023-11-19T03:56:11;3.60;99.90
40374;DHT22;26079;45.958;12.492;2023-11-19T03:58:37;3.60;99.90
40374;DHT22;26079;45.958;12.492;2023-11-19T04:01:11;3.50;99.90
40374;DHT22;26079;45.958;12.492;2023-11-19T04:03:40;3.50;99.90
40374;DHT22;26079;45.958;12.492;2023-11-19T04:06:06;3.50;99.90
40374;DHT22;26079;45.958;12.492;2023-11-19T04:08:32;3.50;99.90
40374;DHT22;26079;45.958;12.492;2023-11-19T04:10:57;3.50;99.90
40374;DHT22;26079;45.958;12.492;2023-11-19T04:13:23;3.40;99.90
40374;DHT22;26079;45.958;12.492;2023-11-19T04:15:50;3.40;99.90
40374;DHT22;26079;45.958;12.492;2023-11-19T04:18:16;3.30;99.90
40374;DHT22;26079;45.958;12.492;2023-11-19T04:20:41;3.30;99.90
40374;DHT22;26079;45.958;12.492;2023-11-19T04:23:08;3.20;99.90
40374;DHT22;26079;45.958;12.492;2023-11-19T04:25:35;3.20;99.90
40374;DHT22;26079;45.958;12.492;2023-11-19T04:28:01;3.20;99.90
40374;DHT22;26079;45.958;12.492;2023-11-19T04:30:28;3.20;99.90
40374;DHT22;26079;45.958;12.492;2023-11-19T04:32:53;3.20;99.90
40374;DHT22;26079;45.958;12.492;2023-11-19T04:35:19;3.20;99.90
40374;DHT22;26079;45.958;12.492;2023-11-19T04:37:45;3.20;99.90
40374;DHT22;26079;45.958;12.492;2023-11-19T04:40:11;3.30;99.90
40374;DHT22;26079;45.958;12.492;2023-11-19T04:42:38;3.30;99.90
40374;DHT22;26079;45.958;12.492;2023-11-19T04:45:06;3.20;99.90
40374;DHT22;26079;45.958;12.492;2023-11-19T04:47:33;3.20;99.90
40374;DHT22;26079;45.958;12.492;2023-11-19T04:49:59;3.10;99.90
40374;DHT22;26079;45.958;12.492;2023-11-19T04:52:25;3.10;99.90
40374;DHT22;26079;45.958;12.492;2023-11-19T04:54:51;3.00;99.90
40374;DHT22;26079;45.958;12.492;2023-11-19T04:57:17;2.90;99.90
40374;DHT22;26079;45.958;12.492;2023-11-19T04:59:42;2.90;99.90
40374;DHT22;26079;45.958;12.492;2023-11-19T05:02:09;3.00;99.90
40374;DHT22;26079;45.958;12.492;2023-11-19T05:04:34;3.00;99.90
40374;DHT22;26079;45.958;12.492;2023-11-19T05:07:00;2.90;99.90
40374;DHT22;26079;45.958;12.492;2023-11-19T05:09:26;2.90;99.90
40374;DHT22;26079;45.958;12.492;2023-11-19T05:11:52;2.90;99.90
40374;DHT22;26079;45.958;12.492;2023-11-19T05:14:17;3.00;99.90
40374;DHT22;26079;45.958;12.492;2023-11-19T05:16:47;2.90;99.90
40374;DHT22;26079;45.958;12.492;2023-11-19T05:19:13;3.00;99.90
40374;DHT22;26079;45.958;12.492;2023-11-19T05:21:42;3.00;99.90
40374;DHT22;26079;45.958;12.492;2023-11-19T05:24:08;3.00;99.90
40374;DHT22;26079;45.958;12.492;2023-11-19T05:26:33;3.10;99.90
40374;DHT22;26079;45.958;12.492;2023-11-19T05:28:59;3.10;99.90
40374;DHT22;26079;45.958;12.492;2023-11-19T05:31:25;3.10;99.90
40374;DHT22;26079;45.958;12.492;2023-11-19T05:33:50;3.00;99.90
40374;DHT22;26079;45.958;12.492;2023-11-19T05:36:17;3.00;99.90
40374;DHT22;26079;45.958;12.492;2023-11-19T05:38:42;3.00;99.90
40374;DHT22;26079;45.958;12.492;2023-11-19T05:41:09;3.00;99.90
40374;DHT22;26079;45.958;12.492;2023-11-19T05:43:35;2.90;99.90
40374;DHT22;26079;45.958;12.492;2023-11-19T05:46:01;2.90;99.90
40374;DHT22;26079;45.958;12.492;2023-11-19T05:48:27;2.80;99.90
40374;DHT22;26079;45.958;12.492;2023-11-19T05:50:53;2.70;99.90
40374;DHT22;26079;45.958;12.492;2023-11-19T05:53:19;2.70;99.90
40374;DHT22;26079;45.958;12.492;2023-11-19T05:55:44;2.70;99.90
40374;DHT22;26079;45.958;12.492;2023-11-19T05:58:14;2.60;99.90
40374;DHT22;26079;45.958;12.492;2023-11-19T06:00:40;2.60;99.90
40374;DHT22;26079;45.958;12.492;2023-11-19T06:03:07;2.60;99.90
40374;DHT22;26079;45.958;12.492;2023-11-19T06:05:33;2.70;99.90
40374;DHT22;26079;45.958;12.492;2023-11-19T06:07:58;2.70;99.90
40374;DHT22;26079;45.958;12.492;2023-11-19T06:10:24;2.70;99.90
40374;DHT22;26079;45.958;12.492;2023-11-19T06:12:57;2.70;99.90
40374;DHT22;26079;45.958;12.492;2023-11-19T06:15:27;2.70;99.90
40374;DHT22;26079;45.958;12.492;2023-11-19T06:17:54;2.60;99.90
40374;DHT22;26079;45.958;12.492;2023-11-19T06:20:20;2.60;99.90
40374;DHT22;26079;45.958;12.492;2023-11-19T06:22:46;2.60;99.90
40374;DHT22;26079;45.958;12.492;2023-11-19T06:25:12;2.60;99.90
40374;DHT22;26079;45.958;12.492;2023-11-19T06:27:41;2.50;99.90
40374;DHT22;26079;45.958;12.492;2023-11-19T06:30:07;2.60;99.90
40374;DHT22;26079;45.958;12.492;2023-11-19T06:32:33;2.50;99.90
40374;DHT22;26079;45.958;12.492;2023-11-19T06:34:59;2.60;99.90
40374;DHT22;26079;45.958;12.492;2023-11-19T06:37:24;2.60;99.90
40374;DHT22;26079;45.958;12.492;2023-11-19T06:39:50;2.60;99.90
40374;DHT22;26079;45.958;12.492;2023-11-19T06:42:16;2.60;99.90
40374;DHT22;26079;45.958;12.492;2023-11-19T06:44:42;2.60;99.90
40374;DHT22;26079;45.958;12.492;2023-11-19T06:47:08;2.60;99.90
40374;DHT22;26079;45.958;12.492;2023-11-19T06:49:33;2.70;99.90
40374;DHT22;26079;45.958;12.492;2023-11-19T06:51:59;2.80;99.90
40374;DHT22;26079;45.958;12.492;2023-11-19T06:54:25;2.80;99.90
40374;DHT22;26079;45.958;12.492;2023-11-19T06:56:50;2.90;99.90
40374;DHT22;26079;45.958;12.492;2023-11-19T06:59:16;2.90;99.90
40374;DHT22;26079;45.958;12.492;2023-11-19T07:01:42;2.90;99.90
40374;DHT22;26079;45.958;12.492;2023-11-19T07:04:13;3.00;99.90
40374;DHT22;26079;45.958;12.492;2023-11-19T07:06:39;3.00;99.90
40374;DHT22;26079;45.958;12.492;2023-11-19T07:09:08;3.10;99.90
40374;DHT22;26079;45.958;12.492;2023-11-19T07:11:40;3.10;99.90
40374;DHT22;26079;45.958;12.492;2023-11-19T07:14:07;3.10;99.90
40374;DHT22;26079;45.958;12.492;2023-11-19T07:16:33;3.20;99.90
40374;DHT22;26079;45.958;12.492;2023-11-19T07:19:08;3.20;99.90
40374;DHT22;26079;45.958;12.492;2023-11-19T07:21:34;3.20;99.90
40374;DHT22;26079;45.958;12.492;2023-11-19T07:23:59;3.20;99.90
40374;DHT22;26079;45.958;12.492;2023-11-19T07:26:25;3.30;99.90
40374;DHT22;26079;45.958;12.492;2023-11-19T07:28:52;3.30;99.90
40374;DHT22;26079;45.958;12.492;2023-11-19T07:31:18;3.40;99.90
40374;DHT22;26079;45.958;12.492;2023-11-19T07:33:47;3.40;99.90
40374;DHT22;26079;45.958;12.492;2023-11-19T07:36:13;3.50;99.90
40374;DHT22;26079;45.958;12.492;2023-11-19T07:38:39;3.60;99.90
40374;DHT22;26079;45.958;12.492;2023-11-19T07:41:06;3.70;99.90
40374;DHT22;26079;45.958;12.492;2023-11-19T07:43:32;3.80;99.90
40374;DHT22;26079;45.958;12.492;2023-11-19T07:45:58;3.90;99.90
40374;DHT22;26079;45.958;12.492;2023-11-19T07:48:25;4.00;99.90
40374;DHT22;26079;45.958;12.492;2023-11-19T07:50:55;4.10;99.90
40374;DHT22;26079;45.958;12.492;2023-11-19T07:53:26;4.10;99.90
40374;DHT22;26079;45.958;12.492;2023-11-19T07:55:52;4.20;99.90
40374;DHT22;26079;45.958;12.492;2023-11-19T07:58:21;4.30;99.90
40374;DHT22;26079;45.958;12.492;2023-11-19T08:00:47;4.40;99.90
40374;DHT22;26079;45.958;12.492;2023-11-19T08:03:12;4.50;99.90
40374;DHT22;26079;45.958;12.492;2023-11-19T08:05:38;4.60;99.90
40374;DHT22;26079;45.958;12.492;2023-11-19T08:08:04;4.70;99.90
40374;DHT22;26079;45.958;12.492;2023-11-19T08:10:30;4.80;99.90
40374;DHT22;26079;45.958;12.492;2023-11-19T08:12:56;4.90;99.90
40374;DHT22;26079;45.958;12.492;2023-11-19T08:15:21;5.00;99.90
40374;DHT22;26079;45.958;12.492;2023-11-19T08:17:47;5.20;99.90
40374;DHT22;26079;45.958;12.492;2023-11-19T08:20:14;5.40;99.90
40374;DHT22;26079;45.958;12.492;2023-11-19T08:22:40;5.60;99.90
40374;DHT22;26079;45.958;12.492;2023-11-19T08:25:06;5.80;99.90
40374;DHT22;26079;45.958;12.492;2023-11-19T08:27:32;6.00;99.90
40374;DHT22;26079;45.958;12.492;2023-11-19T08:29:58;6.20;99.90
40374;DHT22;26079;45.958;12.492;2023-11-19T08:32:25;6.30;99.90
40374;DHT22;26079;45.958;12.492;2023-11-19T08:34:50;6.30;99.90
40374;DHT22;26079;45.958;12.492;2023-11-19T08:37:16;6.50;99.90
40374;DHT22;26079;45.958;12.492;2023-11-19T08:39:49;6.70;99.90
40374;DHT22;26079;45.958;12.492;2023-11-19T08:42:15;7.00;99.90
40374;DHT22;26079;45.958;12.492;2023-11-19T08:44:41;7.30;99.90
40374;DHT22;26079;45.958;12.492;2023-11-19T08:47:09;7.70;99.30
40374;DHT22;26079;45.958;12.492;2023-11-19T08:49:35;8.10;96.00
40374;DHT22;26079;45.958;12.492;2023-11-19T08:52:01;8.30;94.40
40374;DHT22;26079;45.958;12.492;2023-11-19T08:54:27;8.60;92.20
40374;DHT22;26079;45.958;12.492;2023-11-19T08:56:52;8.70;91.60
40374;DHT22;26079;45.958;12.492;2023-11-19T08:59:18;8.90;92.00
40374;DHT22;26079;45.958;12.492;2023-11-19T09:01:44;9.00;91.50
40374;DHT22;26079;45.958;12.492;2023-11-19T09:04:11;9.20;92.70
40374;DHT22;26079;45.958;12.492;2023-11-19T09:06:37;9.30;93.10
40374;DHT22;26079;45.958;12.492;2023-11-19T09:09:02;9.40;91.70
40374;DHT22;26079;45.958;12.492;2023-11-19T09:11:31;9.50;90.80
40374;DHT22;26079;45.958;12.492;2023-11-19T09:13:57;9.60;89.30
40374;DHT22;26079;45.958;12.492;2023-11-19T09:16:22;9.60;88.80
40374;DHT22;26079;45.958;12.492;2023-11-19T09:18:48;9.60;88.10
40374;DHT22;26079;45.958;12.492;2023-11-19T09:21:14;9.60;88.70
40374;DHT22;26079;45.958;12.492;2023-11-19T09:23:39;9.60;88.40
40374;DHT22;26079;45.958;12.492;2023-11-19T09:26:06;9.60;89.40
40374;DHT22;26079;45.958;12.492;2023-11-19T09:28:33;9.70;90.20
40374;DHT22;26079;45.958;12.492;2023-11-19T09:30:59;9.90;89.90
40374;DHT22;26079;45.958;12.492;2023-11-19T09:33:25;10.20;89.80
40374;DHT22;26079;45.958;12.492;2023-11-19T09:35:51;10.30;90.30
40374;DHT22;26079;45.958;12.492;2023-11-19T09:38:17;10.50;88.60
40374;DHT22;26079;45.958;12.492;2023-11-19T09:40:43;10.60;88.50
40374;DHT22;26079;45.958;12.492;2023-11-19T09:43:09;10.70;89.10
40374;DHT22;26079;45.958;12.492;2023-11-19T09:45:48;10.80;89.10
40374;DHT22;26079;45.958;12.492;2023-11-19T09:48:18;10.90;89.80
40374;DHT22;26079;45.958;12.492;2023-11-19T09:50:46;10.80;86.20
40374;DHT22;26079;45.958;12.492;2023-11-19T09:53:12;10.70;86.60
40374;DHT22;26079;45.958;12.492;2023-11-19T09:55:38;10.60;87.80
40374;DHT22;26079;45.958;12.492;2023-11-19T09:58:04;10.60;87.00
40374;DHT22;26079;45.958;12.492;2023-11-19T10:00:31;10.60;88.30
40374;DHT22;26079;45.958;12.492;2023-11-19T10:02:57;10.60;89.80
40374;DHT22;26079;45.958;12.492;2023-11-19T10:05:24;10.60;89.50
40374;DHT22;26079;45.958;12.492;2023-11-19T10:07:50;10.60;89.30
40374;DHT22;26079;45.958;12.492;2023-11-19T10:10:16;10.70;87.50
40374;DHT22;26079;45.958;12.492;2023-11-19T10:12:45;10.70;87.10
40374;DHT22;26079;45.958;12.492;2023-11-19T10:15:19;10.70;87.00
40374;DHT22;26079;45.958;12.492;2023-11-19T10:17:46;10.60;87.00
40374;DHT22;26079;45.958;12.492;2023-11-19T10:20:12;10.50;88.30
40374;DHT22;26079;45.958;12.492;2023-11-19T10:22:37;10.50;88.20
40374;DHT22;26079;45.958;12.492;2023-11-19T10:25:04;10.60;88.80
40374;DHT22;26079;45.958;12.492;2023-11-19T10:27:30;10.60;88.90
40374;DHT22;26079;45.958;12.492;2023-11-19T10:29:59;10.60;88.70
40374;DHT22;26079;45.958;12.492;2023-11-19T10:32:25;10.60;87.40
40374;DHT22;26079;45.958;12.492;2023-11-19T10:34:51;10.60;86.70
40374;DHT22;26079;45.958;12.492;2023-11-19T10:37:29;10.50;86.60
40374;DHT22;26079;45.958;12.492;2023-11-19T10:39:58;10.50;86.80
40374;DHT22;26079;45.958;12.492;2023-11-19T10:42:23;10.60;86.40
40374;DHT22;26079;45.958;12.492;2023-11-19T10:44:49;10.60;86.40
40374;DHT22;26079;45.958;12.492;2023-11-19T10:47:15;10.60;84.70
40374;DHT22;26079;45.958;12.492;2023-11-19T10:49:44;10.70;83.60
40374;DHT22;26079;45.958;12.492;2023-11-19T10:52:12;10.60;84.70
40374;DHT22;26079;45.958;12.492;2023-11-19T10:54:44;10.70;84.40
40374;DHT22;26079;45.958;12.492;2023-11-19T10:57:17;10.80;83.20
40374;DHT22;26079;45.958;12.492;2023-11-19T10:59:45;11.10;80.70
40374;DHT22;26079;45.958;12.492;2023-11-19T11:02:14;11.10;82.00
40374;DHT22;26079;45.958;12.492;2023-11-19T11:04:44;11.20;80.40
40374;DHT22;26079;45.958;12.492;2023-11-19T11:07:14;11.20;81.50
40374;DHT22;26079;45.958;12.492;2023-11-19T11:09:41;11.30;78.70
40374;DHT22;26079;45.958;12.492;2023-11-19T11:12:09;11.40;78.80
40374;DHT22;26079;45.958;12.492;2023-11-19T11:14:37;11.40;78.10
40374;DHT22;26079;45.958;12.492;2023-11-19T11:17:06;11.40;78.60
40374;DHT22;26079;45.958;12.492;2023-11-19T11:19:34;11.30;78.70
40374;DHT22;26079;45.958;12.492;2023-11-19T11:22:01;11.40;75.80
40374;DHT22;26079;45.958;12.492;2023-11-19T11:24:32;11.40;76.00
40374;DHT22;26079;45.958;12.492;2023-11-19T11:27:36;11.40;73.20
40374;DHT22;26079;45.958;12.492;2023-11-19T11:30:20;11.50;75.70
40374;DHT22;26079;45.958;12.492;2023-11-19T11:36:02;11.60;74.40
40374;DHT22;26079;45.958;12.492;2023-11-19T11:38:36;11.60;74.90
40374;DHT22;26079;45.958;12.492;2023-11-19T11:41:22;11.60;74.60
40374;DHT22;26079;45.958;12.492;2023-11-19T11:43:52;11.60;74.00
40374;DHT22;26079;45.958;12.492;2023-11-19T11:49:01;11.70;74.10
40374;DHT22;26079;45.958;12.492;2023-11-19T11:54:31;11.60;73.70
40374;DHT22;26079;45.958;12.492;2023-11-19T11:57:13;11.60;74.60
40374;DHT22;26079;45.958;12.492;2023-11-19T11:59:43;11.70;73.30
40374;DHT22;26079;45.958;12.492;2023-11-19T12:02:12;11.80;72.20
40374;DHT22;26079;45.958;12.492;2023-11-19T12:04:43;12.00;71.90
40374;DHT22;26079;45.958;12.492;2023-11-19T12:07:15;12.00;73.10
40374;DHT22;26079;45.958;12.492;2023-11-19T12:09:42;12.00;73.70
40374;DHT22;26079;45.958;12.492;2023-11-19T12:12:26;11.90;73.50
40374;DHT22;26079;45.958;12.492;2023-11-19T12:20:02;11.70;74.10
40374;DHT22;26079;45.958;12.492;2023-11-19T12:22:28;11.70;72.60
40374;DHT22;26079;45.958;12.492;2023-11-19T12:24:54;11.80;75.00
40374;DHT22;26079;45.958;12.492;2023-11-19T12:27:21;11.80;73.70
40374;DHT22;26079;45.958;12.492;2023-11-19T12:29:51;11.80;75.30
40374;DHT22;26079;45.958;12.492;2023-11-19T12:32:17;11.80;73.50
40374;DHT22;26079;45.958;12.492;2023-11-19T12:34:43;12.00;73.80
40374;DHT22;26079;45.958;12.492;2023-11-19T12:37:10;12.00;75.60
40374;DHT22;26079;45.958;12.492;2023-11-19T12:39:36;12.10;73.70
40374;DHT22;26079;45.958;12.492;2023-11-19T12:42:02;12.10;73.50
40374;DHT22;26079;45.958;12.492;2023-11-19T12:44:28;12.10;74.00
40374;DHT22;26079;45.958;12.492;2023-11-19T12:47:07;12.10;73.30
40374;DHT22;26079;45.958;12.492;2023-11-19T12:49:33;12.10;72.60
40374;DHT22;26079;45.958;12.492;2023-11-19T12:51:59;12.10;72.70
40374;DHT22;26079;45.958;12.492;2023-11-19T12:54:35;12.00;73.40
40374;DHT22;26079;45.958;12.492;2023-11-19T12:57:02;12.00;74.80
40374;DHT22;26079;45.958;12.492;2023-11-19T12:59:28;11.90;75.10
40374;DHT22;26079;45.958;12.492;2023-11-19T13:01:57;11.90;74.30
40374;DHT22;26079;45.958;12.492;2023-11-19T13:04:27;11.90;74.90
40374;DHT22;26079;45.958;12.492;2023-11-19T13:06:53;11.80;76.00
40374;DHT22;26079;45.958;12.492;2023-11-19T13:09:26;11.80;72.20
40374;DHT22;26079;45.958;12.492;2023-11-19T13:11:53;12.00;73.10
40374;DHT22;26079;45.958;12.492;2023-11-19T13:14:19;12.00;73.90
40374;DHT22;26079;45.958;12.492;2023-11-19T13:16:45;11.90;72.70
40374;DHT22;26079;45.958;12.492;2023-11-19T13:19:12;11.90;73.60
40374;DHT22;26079;45.958;12.492;2023-11-19T13:21:38;12.00;69.30
40374;DHT22;26079;45.958;12.492;2023-11-19T13:24:08;12.10;70.90
40374;DHT22;26079;45.958;12.492;2023-11-19T13:26:34;12.10;72.60
40374;DHT22;26079;45.958;12.492;2023-11-19T13:29:00;12.10;72.20
40374;DHT22;26079;45.958;12.492;2023-11-19T13:31:26;12.00;72.30
40374;DHT22;26079;45.958;12.492;2023-11-19T13:33:52;12.10;74.10
40374;DHT22;26079;45.958;12.492;2023-11-19T13:36:17;12.10;75.80
40374;DHT22;26079;45.958;12.492;2023-11-19T13:38:44;12.10;73.90
40374;DHT22;26079;45.958;12.492;2023-11-19T13:41:10;12.00;73.40
40374;DHT22;26079;45.958;12.492;2023-11-19T13:43:37;11.90;73.50
40374;DHT22;26079;45.958;12.492;2023-11-19T13:46:03;11.90;74.30
40374;DHT22;26079;45.958;12.492;2023-11-19T13:48:29;12.00;70.30
40374;DHT22;26079;45.958;12.492;2023-11-19T13:50:55;12.10;71.60
40374;DHT22;26079;45.958;12.492;2023-11-19T13:53:22;12.10;72.20
40374;DHT22;26079;45.958;12.492;2023-11-19T13:55:49;12.20;70.70
40374;DHT22;26079;45.958;12.492;2023-11-19T13:58:15;12.20;71.80
40374;DHT22;26079;45.958;12.492;2023-11-19T14:00:41;12.10;71.30
40374;DHT22;26079;45.958;12.492;2023-11-19T14:03:09;12.10;70.90
40374;DHT22;26079;45.958;12.492;2023-11-19T14:05:35;12.10;73.20
40374;DHT22;26079;45.958;12.492;2023-11-19T14:08:01;12.10;71.70
40374;DHT22;26079;45.958;12.492;2023-11-19T14:10:27;12.10;71.10
40374;DHT22;26079;45.958;12.492;2023-11-19T14:12:53;12.10;72.20
40374;DHT22;26079;45.958;12.492;2023-11-19T14:15:19;12.10;71.90
40374;DHT22;26079;45.958;12.492;2023-11-19T14:17:45;12.10;71.60
40374;DHT22;26079;45.958;12.492;2023-11-19T14:20:11;12.00;72.50
40374;DHT22;26079;45.958;12.492;2023-11-19T14:22:44;11.90;73.30
40374;DHT22;26079;45.958;12.492;2023-11-19T14:25:13;11.80;74.00
40374;DHT22;26079;45.958;12.492;2023-11-19T14:27:39;11.60;74.10
40374;DHT22;26079;45.958;12.492;2023-11-19T14:30:06;11.50;74.40
40374;DHT22;26079;45.958;12.492;2023-11-19T14:32:32;11.50;75.90
40374;DHT22;26079;45.958;12.492;2023-11-19T14:34:58;11.30;77.60
40374;DHT22;26079;45.958;12.492;2023-11-19T14:37:24;11.20;78.50
40374;DHT22;26079;45.958;12.492;2023-11-19T14:39:49;11.10;80.10
40374;DHT22;26079;45.958;12.492;2023-11-19T14:42:16;10.90;79.90
40374;DHT22;26079;45.958;12.492;2023-11-19T14:44:42;10.80;79.80
40374;DHT22;26079;45.958;12.492;2023-11-19T14:47:08;10.80;83.10
40374;DHT22;26079;45.958;12.492;2023-11-19T14:49:37;10.70;81.10
40374;DHT22;26079;45.958;12.492;2023-11-19T14:52:04;10.70;82.00
40374;DHT22;26079;45.958;12.492;2023-11-19T14:54:33;10.60;81.40
40374;DHT22;26079;45.958;12.492;2023-11-19T14:57:05;10.40;81.50
40374;DHT22;26079;45.958;12.492;2023-11-19T14:59:33;10.40;82.60
40374;DHT22;26079;45.958;12.492;2023-11-19T15:01:59;10.20;83.40
40374;DHT22;26079;45.958;12.492;2023-11-19T15:04:26;10.10;84.50
40374;DHT22;26079;45.958;12.492;2023-11-19T15:06:52;10.00;84.60
40374;DHT22;26079;45.958;12.492;2023-11-19T15:09:18;9.90;89.20
40374;DHT22;26079;45.958;12.492;2023-11-19T15:11:46;9.80;91.30
40374;DHT22;26079;45.958;12.492;2023-11-19T15:14:16;9.60;89.90
40374;DHT22;26079;45.958;12.492;2023-11-19T15:16:45;9.40;90.50
40374;DHT22;26079;45.958;12.492;2023-11-19T15:19:12;9.30;90.20
40374;DHT22;26079;45.958;12.492;2023-11-19T15:21:41;9.20;89.70
40374;DHT22;26079;45.958;12.492;2023-11-19T15:24:08;9.10;89.80
40374;DHT22;26079;45.958;12.492;2023-11-19T15:26:34;9.10;90.60
40374;DHT22;26079;45.958;12.492;2023-11-19T15:29:04;9.00;92.50
40374;DHT22;26079;45.958;12.492;2023-11-19T15:31:30;8.90;92.80
40374;DHT22;26079;45.958;12.492;2023-11-19T15:33:56;8.80;95.00
40374;DHT22;26079;45.958;12.492;2023-11-19T15:36:22;8.80;93.60
40374;DHT22;26079;45.958;12.492;2023-11-19T15:38:48;8.70;93.80